sensor_id;sensor_type;location;lat;lon;timestamp;P1;durP1;ratioP1;P2;durP2;ratioP2
55655;SDS011;41530;52.382;5.270;2022-09-12T00:00:51;1.95;;;1.83;;
55655;SDS011;41530;52.382;5.270;2022-09-12T00:03:17;3.60;;;1.90;;
55655;SDS011;41530;52.382;5.270;2022-09-12T00:05:45;2.53;;;1.90;;
55655;SDS011;41530;52.382;5.270;2022-09-12T00:08:12;3.75;;;2.58;;
55655;SDS011;41530;52.382;5.270;2022-09-12T00:10:40;3.15;;;2.38;;
55655;SDS011;41530;52.382;5.270;2022-09-12T00:13:08;3.67;;;1.98;;
55655;SDS011;41530;52.382;5.270;2022-09-12T00:15:39;2.92;;;1.90;;
55655;SDS011;41530;52.382;5.270;2022-09-12T00:18:07;1.88;;;1.77;;
55655;SDS011;41530;52.382;5.270;2022-09-12T00:20:40;3.85;;;2.10;;
55655;SDS011;41530;52.382;5.270;2022-09-12T00:23:07;3.22;;;2.00;;
55655;SDS011;41530;52.382;5.270;2022-09-12T00:25:39;3.03;;;2.47;;
55655;SDS011;41530;52.382;5.270;2022-09-12T00:28:07;5.05;;;2.20;;
55655;SDS011;41530;52.382;5.270;2022-09-12T00:30:34;3.15;;;2.30;;
55655;SDS011;41530;52.382;5.270;2022-09-12T00:33:00;5.07;;;2.63;;
55655;SDS011;41530;52.382;5.270;2022-09-12T00:35:26;3.30;;;2.53;;
55655;SDS011;41530;52.382;5.270;2022-09-12T00:37:53;3.70;;;2.42;;
55655;SDS011;41530;52.382;5.270;2022-09-12T00:40:20;4.15;;;2.47;;
55655;SDS011;41530;52.382;5.270;2022-09-12T00:42:46;3.70;;;2.33;;
55655;SDS011;41530;52.382;5.270;2022-09-12T00:45:22;2.50;;;2.30;;
55655;SDS011;41530;52.382;5.270;2022-09-12T00:47:52;3.63;;;2.53;;
55655;SDS011;41530;52.382;5.270;2022-09-12T00:50:20;4.07;;;3.38;;
55655;SDS011;41530;52.382;5.270;2022-09-12T00:52:54;3.83;;;3.50;;
55655;SDS011;41530;52.382;5.270;2022-09-12T00:55:26;3.92;;;2.92;;
55655;SDS011;41530;52.382;5.270;2022-09-12T00:58:02;2.35;;;2.15;;
55655;SDS011;41530;52.382;5.270;2022-09-12T01:00:35;4.50;;;2.47;;
55655;SDS011;41530;52.382;5.270;2022-09-12T01:03:06;3.45;;;2.53;;
55655;SDS011;41530;52.382;5.270;2022-09-12T01:05:41;4.03;;;2.63;;
55655;SDS011;41530;52.382;5.270;2022-09-12T01:08:11;4.55;;;2.83;;
55655;SDS011;41530;52.382;5.270;2022-09-12T01:10:38;4.30;;;3.17;;
55655;SDS011;41530;52.382;5.270;2022-09-12T01:13:07;3.75;;;2.78;;
55655;SDS011;41530;52.382;5.270;2022-09-12T01:15:37;5.32;;;2.67;;
55655;SDS011;41530;52.382;5.270;2022-09-12T01:18:27;3.17;;;2.30;;
55655;SDS011;41530;52.382;5.270;2022-09-12T01:32:12;3.72;;;3.05;;
55655;SDS011;41530;52.382;5.270;2022-09-12T01:34:48;2.97;;;2.70;;
55655;SDS011;41530;52.382;5.270;2022-09-12T01:40:15;3.97;;;3.58;;
55655;SDS011;41530;52.382;5.270;2022-09-12T01:45:52;4.00;;;3.60;;
55655;SDS011;41530;52.382;5.270;2022-09-12T01:48:34;5.38;;;3.65;;
55655;SDS011;41530;52.382;5.270;2022-09-12T01:51:08;5.25;;;3.75;;
55655;SDS011;41530;52.382;5.270;2022-09-12T01:53:45;5.75;;;5.03;;
55655;SDS011;41530;52.382;5.270;2022-09-12T01:56:21;5.25;;;4.70;;
55655;SDS011;41530;52.382;5.270;2022-09-12T01:59:05;7.07;;;5.97;;
55655;SDS011;41530;52.382;5.270;2022-09-12T02:01:38;10.75;;;5.35;;
55655;SDS011;41530;52.382;5.270;2022-09-12T02:04:14;11.43;;;5.88;;
55655;SDS011;41530;52.382;5.270;2022-09-12T02:09:22;8.13;;;6.78;;
55655;SDS011;41530;52.382;5.270;2022-09-12T02:11:52;8.90;;;6.07;;
55655;SDS011;41530;52.382;5.270;2022-09-12T02:14:25;9.50;;;6.47;;
55655;SDS011;41530;52.382;5.270;2022-09-12T02:16:55;8.98;;;6.50;;
55655;SDS011;41530;52.382;5.270;2022-09-12T02:19:29;10.73;;;7.25;;
55655;SDS011;41530;52.382;5.270;2022-09-12T02:22:02;7.38;;;6.18;;
55655;SDS011;41530;52.382;5.270;2022-09-12T02:24:32;6.50;;;5.78;;
55655;SDS011;41530;52.382;5.270;2022-09-12T02:27:06;9.27;;;6.15;;
55655;SDS011;41530;52.382;5.270;2022-09-12T02:29:34;5.50;;;5.00;;
55655;SDS011;41530;52.382;5.270;2022-09-12T02:32:06;6.38;;;4.63;;
55655;SDS011;41530;52.382;5.270;2022-09-12T02:40:08;5.63;;;3.70;;
55655;SDS011;41530;52.382;5.270;2022-09-12T02:42:35;7.55;;;5.72;;
55655;SDS011;41530;52.382;5.270;2022-09-12T02:45:02;6.63;;;5.07;;
55655;SDS011;41530;52.382;5.270;2022-09-12T02:50:05;5.85;;;5.07;;
55655;SDS011;41530;52.382;5.270;2022-09-12T02:52:33;7.65;;;5.55;;
55655;SDS011;41530;52.382;5.270;2022-09-12T02:55:01;9.98;;;7.70;;
55655;SDS011;41530;52.382;5.270;2022-09-12T02:57:30;9.57;;;8.07;;
55655;SDS011;41530;52.382;5.270;2022-09-12T02:59:57;10.05;;;7.57;;
55655;SDS011;41530;52.382;5.270;2022-09-12T03:05:34;10.90;;;7.90;;
55655;SDS011;41530;52.382;5.270;2022-09-12T03:08:14;10.95;;;8.30;;
55655;SDS011;41530;52.382;5.270;2022-09-12T03:16:24;9.88;;;6.03;;
55655;SDS011;41530;52.382;5.270;2022-09-12T03:25:10;7.90;;;5.63;;
55655;SDS011;41530;52.382;5.270;2022-09-12T03:30:24;6.75;;;4.90;;
55655;SDS011;41530;52.382;5.270;2022-09-12T03:32:52;10.15;;;5.80;;
55655;SDS011;41530;52.382;5.270;2022-09-12T03:35:21;8.20;;;6.97;;
55655;SDS011;41530;52.382;5.270;2022-09-12T03:37:49;8.55;;;7.15;;
55655;SDS011;41530;52.382;5.270;2022-09-12T03:40:17;11.77;;;8.02;;
55655;SDS011;41530;52.382;5.270;2022-09-12T03:42:44;12.65;;;7.72;;
55655;SDS011;41530;52.382;5.270;2022-09-12T03:45:10;11.60;;;8.40;;
55655;SDS011;41530;52.382;5.270;2022-09-12T03:47:38;8.32;;;6.32;;
55655;SDS011;41530;52.382;5.270;2022-09-12T03:50:05;9.52;;;7.43;;
55655;SDS011;41530;52.382;5.270;2022-09-12T03:52:32;11.38;;;7.78;;
55655;SDS011;41530;52.382;5.270;2022-09-12T03:54:58;11.35;;;6.57;;
55655;SDS011;41530;52.382;5.270;2022-09-12T03:57:25;7.97;;;5.40;;
55655;SDS011;41530;52.382;5.270;2022-09-12T03:59:51;6.28;;;5.47;;
55655;SDS011;41530;52.382;5.270;2022-09-12T04:02:18;6.38;;;5.20;;
55655;SDS011;41530;52.382;5.270;2022-09-12T04:04:45;6.65;;;5.45;;
55655;SDS011;41530;52.382;5.270;2022-09-12T04:07:14;9.02;;;5.68;;
55655;SDS011;41530;52.382;5.270;2022-09-12T04:09:41;12.35;;;5.22;;
55655;SDS011;41530;52.382;5.270;2022-09-12T04:12:08;10.90;;;6.25;;
55655;SDS011;41530;52.382;5.270;2022-09-12T04:14:34;16.88;;;8.38;;
55655;SDS011;41530;52.382;5.270;2022-09-12T04:17:01;17.67;;;8.57;;
55655;SDS011;41530;52.382;5.270;2022-09-12T04:19:28;16.13;;;6.70;;
55655;SDS011;41530;52.382;5.270;2022-09-12T04:21:54;12.18;;;6.60;;
55655;SDS011;41530;52.382;5.270;2022-09-12T04:24:21;13.00;;;7.20;;
55655;SDS011;41530;52.382;5.270;2022-09-12T04:26:47;11.55;;;6.88;;
55655;SDS011;41530;52.382;5.270;2022-09-12T04:29:14;11.73;;;8.00;;
55655;SDS011;41530;52.382;5.270;2022-09-12T04:31:41;11.38;;;7.07;;
55655;SDS011;41530;52.382;5.270;2022-09-12T04:34:08;14.32;;;8.68;;
55655;SDS011;41530;52.382;5.270;2022-09-12T04:36:35;12.15;;;7.35;;
55655;SDS011;41530;52.382;5.270;2022-09-12T04:39:02;10.68;;;7.70;;
55655;SDS011;41530;52.382;5.270;2022-09-12T04:41:31;10.80;;;7.18;;
55655;SDS011;41530;52.382;5.270;2022-09-12T04:44:03;11.48;;;8.00;;
55655;SDS011;41530;52.382;5.270;2022-09-12T04:46:34;12.45;;;7.63;;
55655;SDS011;41530;52.382;5.270;2022-09-12T04:49:02;13.57;;;6.70;;
55655;SDS011;41530;52.382;5.270;2022-09-12T04:51:30;9.73;;;6.00;;
55655;SDS011;41530;52.382;5.270;2022-09-12T04:53:59;10.50;;;5.63;;
55655;SDS011;41530;52.382;5.270;2022-09-12T04:56:29;8.43;;;5.57;;
55655;SDS011;41530;52.382;5.270;2022-09-12T04:58:56;8.35;;;5.30;;
55655;SDS011;41530;52.382;5.270;2022-09-12T05:01:26;8.80;;;6.15;;
55655;SDS011;41530;52.382;5.270;2022-09-12T05:03:55;11.52;;;7.68;;
55655;SDS011;41530;52.382;5.270;2022-09-12T05:06:24;9.18;;;7.85;;
55655;SDS011;41530;52.382;5.270;2022-09-12T05:08:55;10.13;;;8.00;;
55655;SDS011;41530;52.382;5.270;2022-09-12T05:11:24;11.05;;;8.05;;
55655;SDS011;41530;52.382;5.270;2022-09-12T05:14:12;12.82;;;7.78;;
55655;SDS011;41530;52.382;5.270;2022-09-12T05:16:39;10.98;;;8.30;;
55655;SDS011;41530;52.382;5.270;2022-09-12T05:19:06;11.32;;;7.78;;
55655;SDS011;41530;52.382;5.270;2022-09-12T05:21:34;9.52;;;8.02;;
55655;SDS011;41530;52.382;5.270;2022-09-12T05:24:00;12.75;;;8.48;;
55655;SDS011;41530;52.382;5.270;2022-09-12T05:26:27;11.13;;;8.30;;
55655;SDS011;41530;52.382;5.270;2022-09-12T05:28:54;13.98;;;9.45;;
55655;SDS011;41530;52.382;5.270;2022-09-12T05:31:22;11.50;;;8.75;;
55655;SDS011;41530;52.382;5.270;2022-09-12T05:33:51;11.98;;;7.90;;
55655;SDS011;41530;52.382;5.270;2022-09-12T05:36:23;11.60;;;8.82;;
55655;SDS011;41530;52.382;5.270;2022-09-12T05:38:52;16.63;;;8.88;;
55655;SDS011;41530;52.382;5.270;2022-09-12T05:41:20;20.15;;;10.18;;
55655;SDS011;41530;52.382;5.270;2022-09-12T05:43:54;27.75;;;11.10;;
55655;SDS011;41530;52.382;5.270;2022-09-12T05:46:22;20.52;;;11.45;;
55655;SDS011;41530;52.382;5.270;2022-09-12T05:48:51;22.92;;;10.68;;
55655;SDS011;41530;52.382;5.270;2022-09-12T05:51:25;23.75;;;9.75;;
55655;SDS011;41530;52.382;5.270;2022-09-12T05:53:57;18.20;;;7.50;;
55655;SDS011;41530;52.382;5.270;2022-09-12T05:56:29;13.27;;;8.88;;
55655;SDS011;41530;52.382;5.270;2022-09-12T05:59:01;16.38;;;8.85;;
55655;SDS011;41530;52.382;5.270;2022-09-12T06:01:30;14.00;;;8.60;;
55655;SDS011;41530;52.382;5.270;2022-09-12T06:04:02;11.75;;;7.85;;
55655;SDS011;41530;52.382;5.270;2022-09-12T06:06:30;10.68;;;7.22;;
55655;SDS011;41530;52.382;5.270;2022-09-12T06:08:58;12.80;;;7.28;;
55655;SDS011;41530;52.382;5.270;2022-09-12T06:11:27;14.52;;;6.95;;
55655;SDS011;41530;52.382;5.270;2022-09-12T06:13:56;9.55;;;6.30;;
55655;SDS011;41530;52.382;5.270;2022-09-12T06:16:24;11.93;;;5.43;;
55655;SDS011;41530;52.382;5.270;2022-09-12T06:18:54;9.85;;;5.72;;
55655;SDS011;41530;52.382;5.270;2022-09-12T06:21:22;9.38;;;5.35;;
55655;SDS011;41530;52.382;5.270;2022-09-12T06:23:50;8.38;;;5.55;;
55655;SDS011;41530;52.382;5.270;2022-09-12T06:26:18;11.98;;;5.93;;
55655;SDS011;41530;52.382;5.270;2022-09-12T06:28:48;10.15;;;6.45;;
55655;SDS011;41530;52.382;5.270;2022-09-12T06:31:19;14.48;;;10.13;;
55655;SDS011;41530;52.382;5.270;2022-09-12T06:33:49;15.38;;;10.55;;
55655;SDS011;41530;52.382;5.270;2022-09-12T06:36:21;17.60;;;9.05;;
55655;SDS011;41530;52.382;5.270;2022-09-12T06:38:56;12.40;;;7.90;;
55655;SDS011;41530;52.382;5.270;2022-09-12T06:41:30;14.68;;;10.13;;
55655;SDS011;41530;52.382;5.270;2022-09-12T06:43:57;21.73;;;11.88;;
55655;SDS011;41530;52.382;5.270;2022-09-12T06:46:25;15.77;;;10.60;;
55655;SDS011;41530;52.382;5.270;2022-09-12T06:48:52;19.65;;;9.73;;
55655;SDS011;41530;52.382;5.270;2022-09-12T06:51:21;14.50;;;10.25;;
55655;SDS011;41530;52.382;5.270;2022-09-12T06:53:48;13.93;;;10.05;;
55655;SDS011;41530;52.382;5.270;2022-09-12T06:56:18;16.75;;;11.35;;
55655;SDS011;41530;52.382;5.270;2022-09-12T06:58:47;19.08;;;11.10;;
55655;SDS011;41530;52.382;5.270;2022-09-12T07:01:15;18.00;;;10.13;;
55655;SDS011;41530;52.382;5.270;2022-09-12T07:03:49;15.35;;;9.10;;
55655;SDS011;41530;52.382;5.270;2022-09-12T07:06:18;10.30;;;6.13;;
55655;SDS011;41530;52.382;5.270;2022-09-12T07:08:46;11.05;;;8.38;;
55655;SDS011;41530;52.382;5.270;2022-09-12T07:11:17;12.77;;;9.10;;
55655;SDS011;41530;52.382;5.270;2022-09-12T07:13:47;14.65;;;9.95;;
55655;SDS011;41530;52.382;5.270;2022-09-12T07:16:15;15.32;;;10.02;;
55655;SDS011;41530;52.382;5.270;2022-09-12T07:18:52;16.70;;;10.55;;
55655;SDS011;41530;52.382;5.270;2022-09-12T07:21:29;15.88;;;11.13;;
55655;SDS011;41530;52.382;5.270;2022-09-12T07:23:56;17.42;;;10.88;;
55655;SDS011;41530;52.382;5.270;2022-09-12T07:26:26;18.95;;;11.65;;
55655;SDS011;41530;52.382;5.270;2022-09-12T07:28:54;17.40;;;11.65;;
55655;SDS011;41530;52.382;5.270;2022-09-12T07:31:42;16.95;;;11.73;;
55655;SDS011;41530;52.382;5.270;2022-09-12T07:34:09;19.48;;;11.63;;
55655;SDS011;41530;52.382;5.270;2022-09-12T07:36:36;18.17;;;11.13;;
55655;SDS011;41530;52.382;5.270;2022-09-12T07:39:04;18.48;;;12.05;;
55655;SDS011;41530;52.382;5.270;2022-09-12T07:41:31;23.13;;;15.05;;
55655;SDS011;41530;52.382;5.270;2022-09-12T07:44:01;20.27;;;13.93;;
55655;SDS011;41530;52.382;5.270;2022-09-12T07:46:29;18.52;;;13.13;;
55655;SDS011;41530;52.382;5.270;2022-09-12T07:48:57;17.58;;;12.18;;
55655;SDS011;41530;52.382;5.270;2022-09-12T07:51:25;21.15;;;11.77;;
55655;SDS011;41530;52.382;5.270;2022-09-12T07:53:54;16.75;;;11.30;;
55655;SDS011;41530;52.382;5.270;2022-09-12T07:56:21;16.50;;;11.15;;
55655;SDS011;41530;52.382;5.270;2022-09-12T07:58:55;16.40;;;11.02;;
55655;SDS011;41530;52.382;5.270;2022-09-12T08:01:22;21.88;;;12.95;;
55655;SDS011;41530;52.382;5.270;2022-09-12T08:03:50;17.70;;;11.77;;
55655;SDS011;41530;52.382;5.270;2022-09-12T08:06:20;17.75;;;11.70;;
55655;SDS011;41530;52.382;5.270;2022-09-12T08:08:52;18.05;;;11.55;;
55655;SDS011;41530;52.382;5.270;2022-09-12T08:11:20;18.80;;;12.20;;
55655;SDS011;41530;52.382;5.270;2022-09-12T08:13:48;17.25;;;11.23;;
55655;SDS011;41530;52.382;5.270;2022-09-12T08:16:21;18.35;;;11.25;;
55655;SDS011;41530;52.382;5.270;2022-09-12T08:18:49;16.73;;;11.60;;
55655;SDS011;41530;52.382;5.270;2022-09-12T08:21:16;15.38;;;10.07;;
55655;SDS011;41530;52.382;5.270;2022-09-12T08:23:45;17.83;;;10.15;;
55655;SDS011;41530;52.382;5.270;2022-09-12T08:26:13;18.00;;;10.85;;
55655;SDS011;41530;52.382;5.270;2022-09-12T08:28:43;15.00;;;9.85;;
55655;SDS011;41530;52.382;5.270;2022-09-12T08:31:14;14.63;;;9.05;;
55655;SDS011;41530;52.382;5.270;2022-09-12T08:33:43;14.25;;;9.85;;
55655;SDS011;41530;52.382;5.270;2022-09-12T08:36:28;11.30;;;8.13;;
55655;SDS011;41530;52.382;5.270;2022-09-12T08:38:59;11.95;;;8.13;;
55655;SDS011;41530;52.382;5.270;2022-09-12T08:41:40;17.02;;;9.00;;
55655;SDS011;41530;52.382;5.270;2022-09-12T08:49:37;13.77;;;8.02;;
55655;SDS011;41530;52.382;5.270;2022-09-12T08:52:11;11.75;;;7.75;;
55655;SDS011;41530;52.382;5.270;2022-09-12T08:54:42;17.00;;;9.13;;
55655;SDS011;41530;52.382;5.270;2022-09-12T08:57:10;10.18;;;7.90;;
55655;SDS011;41530;52.382;5.270;2022-09-12T08:59:43;14.88;;;8.38;;
55655;SDS011;41530;52.382;5.270;2022-09-12T09:14:01;11.13;;;6.15;;
55655;SDS011;41530;52.382;5.270;2022-09-12T09:16:58;8.52;;;6.45;;
55655;SDS011;41530;52.382;5.270;2022-09-12T09:19:27;11.82;;;6.55;;
55655;SDS011;41530;52.382;5.270;2022-09-12T09:22:00;10.57;;;6.30;;
55655;SDS011;41530;52.382;5.270;2022-09-12T09:24:41;8.18;;;5.93;;
55655;SDS011;41530;52.382;5.270;2022-09-12T09:30:07;12.48;;;6.30;;
55655;SDS011;41530;52.382;5.270;2022-09-12T09:32:40;7.10;;;5.60;;
55655;SDS011;41530;52.382;5.270;2022-09-12T09:35:12;9.40;;;6.65;;
55655;SDS011;41530;52.382;5.270;2022-09-12T09:38:46;6.88;;;5.20;;
55655;SDS011;41530;52.382;5.270;2022-09-12T09:43:52;6.13;;;4.25;;
55655;SDS011;41530;52.382;5.270;2022-09-12T09:46:19;7.60;;;5.05;;
55655;SDS011;41530;52.382;5.270;2022-09-12T09:48:47;10.90;;;6.13;;
55655;SDS011;41530;52.382;5.270;2022-09-12T09:51:20;11.77;;;6.05;;
55655;SDS011;41530;52.382;5.270;2022-09-12T09:54:16;7.63;;;5.00;;
55655;SDS011;41530;52.382;5.270;2022-09-12T09:56:44;8.35;;;4.90;;
55655;SDS011;41530;52.382;5.270;2022-09-12T09:59:16;7.68;;;4.32;;
55655;SDS011;41530;52.382;5.270;2022-09-12T10:01:46;7.13;;;3.67;;
55655;SDS011;41530;52.382;5.270;2022-09-12T10:04:20;7.88;;;3.40;;
55655;SDS011;41530;52.382;5.270;2022-09-12T10:06:58;6.47;;;3.03;;
55655;SDS011;41530;52.382;5.270;2022-09-12T10:09:31;4.32;;;2.53;;
55655;SDS011;41530;52.382;5.270;2022-09-12T10:11:59;5.57;;;2.63;;
55655;SDS011;41530;52.382;5.270;2022-09-12T10:14:44;3.85;;;2.33;;
55655;SDS011;41530;52.382;5.270;2022-09-12T10:19:59;4.75;;;2.80;;
55655;SDS011;41530;52.382;5.270;2022-09-12T10:22:45;3.20;;;2.70;;
55655;SDS011;41530;52.382;5.270;2022-09-12T10:25:14;3.67;;;2.65;;
55655;SDS011;41530;52.382;5.270;2022-09-12T10:27:44;3.28;;;2.58;;
55655;SDS011;41530;52.382;5.270;2022-09-12T10:30:19;3.37;;;2.47;;
55655;SDS011;41530;52.382;5.270;2022-09-12T10:32:50;4.72;;;3.10;;
55655;SDS011;41530;52.382;5.270;2022-09-12T10:35:21;7.00;;;2.97;;
55655;SDS011;41530;52.382;5.270;2022-09-12T10:37:51;4.20;;;2.80;;
55655;SDS011;41530;52.382;5.270;2022-09-12T10:40:26;3.28;;;2.83;;
55655;SDS011;41530;52.382;5.270;2022-09-12T10:42:55;4.93;;;3.30;;
55655;SDS011;41530;52.382;5.270;2022-09-12T10:45:30;3.45;;;2.72;;
55655;SDS011;41530;52.382;5.270;2022-09-12T10:48:47;5.07;;;3.20;;
55655;SDS011;41530;52.382;5.270;2022-09-12T10:50:50;3.15;;;2.80;;
55655;SDS011;41530;52.382;5.270;2022-09-12T10:53:25;3.75;;;2.85;;
55655;SDS011;41530;52.382;5.270;2022-09-12T11:01:48;5.03;;;2.67;;
55655;SDS011;41530;52.382;5.270;2022-09-12T11:04:23;4.75;;;3.40;;
55655;SDS011;41530;52.382;5.270;2022-09-12T11:12:19;4.53;;;2.90;;
55655;SDS011;41530;52.382;5.270;2022-09-12T11:15:04;4.30;;;2.63;;
55655;SDS011;41530;52.382;5.270;2022-09-12T11:17:53;3.17;;;2.60;;
55655;SDS011;41530;52.382;5.270;2022-09-12T11:28:56;4.05;;;3.20;;
55655;SDS011;41530;52.382;5.270;2022-09-12T11:34:40;5.05;;;3.10;;
55655;SDS011;41530;52.382;5.270;2022-09-12T11:39:43;4.38;;;3.13;;
55655;SDS011;41530;52.382;5.270;2022-09-12T11:42:25;5.50;;;2.78;;
55655;SDS011;41530;52.382;5.270;2022-09-12T11:45:01;2.97;;;2.15;;
55655;SDS011;41530;52.382;5.270;2022-09-12T11:47:37;3.20;;;2.30;;
55655;SDS011;41530;52.382;5.270;2022-09-12T11:50:14;5.35;;;2.55;;
55655;SDS011;41530;52.382;5.270;2022-09-12T11:52:48;2.25;;;2.03;;
55655;SDS011;41530;52.382;5.270;2022-09-12T11:57:57;5.80;;;2.28;;
55655;SDS011;41530;52.382;5.270;2022-09-12T12:08:36;3.80;;;2.28;;
55655;SDS011;41530;52.382;5.270;2022-09-12T12:11:05;4.10;;;2.30;;
55655;SDS011;41530;52.382;5.270;2022-09-12T12:16:27;2.92;;;1.95;;
55655;SDS011;41530;52.382;5.270;2022-09-12T12:19:02;5.95;;;2.10;;
55655;SDS011;41530;52.382;5.270;2022-09-12T12:21:48;2.42;;;1.90;;
55655;SDS011;41530;52.382;5.270;2022-09-12T12:24:20;1.60;;;1.50;;
55655;SDS011;41530;52.382;5.270;2022-09-12T12:29:39;2.35;;;2.15;;
55655;SDS011;41530;52.382;5.270;2022-09-12T12:34:37;4.43;;;2.20;;
55655;SDS011;41530;52.382;5.270;2022-09-12T12:45:01;3.80;;;1.95;;
55655;SDS011;41530;52.382;5.270;2022-09-12T12:47:32;3.20;;;2.10;;
55655;SDS011;41530;52.382;5.270;2022-09-12T12:50:26;3.33;;;2.33;;
55655;SDS011;41530;52.382;5.270;2022-09-12T13:01:10;3.38;;;1.85;;
55655;SDS011;41530;52.382;5.270;2022-09-12T13:03:41;2.10;;;1.90;;
55655;SDS011;41530;52.382;5.270;2022-09-12T13:09:04;2.53;;;1.75;;
55655;SDS011;41530;52.382;5.270;2022-09-12T13:11:56;2.13;;;1.80;;
55655;SDS011;41530;52.382;5.270;2022-09-12T13:20:04;2.08;;;1.60;;
55655;SDS011;41530;52.382;5.270;2022-09-12T13:22:52;1.95;;;1.75;;
55655;SDS011;41530;52.382;5.270;2022-09-12T13:25:21;2.22;;;1.85;;
55655;SDS011;41530;52.382;5.270;2022-09-12T13:28:03;2.70;;;1.83;;
55655;SDS011;41530;52.382;5.270;2022-09-12T13:30:41;4.27;;;2.00;;
55655;SDS011;41530;52.382;5.270;2022-09-12T13:44:08;3.78;;;1.80;;
55655;SDS011;41530;52.382;5.270;2022-09-12T13:46:38;2.53;;;2.03;;
55655;SDS011;41530;52.382;5.270;2022-09-12T13:49:06;2.90;;;2.10;;
55655;SDS011;41530;52.382;5.270;2022-09-12T13:51:58;2.45;;;1.90;;
55655;SDS011;41530;52.382;5.270;2022-09-12T13:54:31;2.00;;;1.80;;
55655;SDS011;41530;52.382;5.270;2022-09-12T13:57:00;3.42;;;2.05;;
55655;SDS011;41530;52.382;5.270;2022-09-12T13:59:27;1.58;;;1.48;;
55655;SDS011;41530;52.382;5.270;2022-09-12T14:01:53;3.08;;;2.00;;
55655;SDS011;41530;52.382;5.270;2022-09-12T14:04:21;2.15;;;1.58;;
55655;SDS011;41530;52.382;5.270;2022-09-12T14:07:12;5.13;;;1.85;;
55655;SDS011;41530;52.382;5.270;2022-09-12T14:09:43;1.80;;;1.70;;
55655;SDS011;41530;52.382;5.270;2022-09-12T14:12:13;3.08;;;1.90;;
55655;SDS011;41530;52.382;5.270;2022-09-12T14:14:50;2.67;;;1.70;;
55655;SDS011;41530;52.382;5.270;2022-09-12T14:17:30;2.20;;;1.88;;
55655;SDS011;41530;52.382;5.270;2022-09-12T14:20:00;2.75;;;2.30;;
55655;SDS011;41530;52.382;5.270;2022-09-12T14:22:28;2.05;;;1.75;;
55655;SDS011;41530;52.382;5.270;2022-09-12T14:24:56;3.25;;;1.80;;
55655;SDS011;41530;52.382;5.270;2022-09-12T14:27:25;2.15;;;1.80;;
55655;SDS011;41530;52.382;5.270;2022-09-12T14:30:05;2.65;;;1.70;;
55655;SDS011;41530;52.382;5.270;2022-09-12T14:32:34;2.70;;;1.65;;
55655;SDS011;41530;52.382;5.270;2022-09-12T14:35:05;2.08;;;1.80;;
55655;SDS011;41530;52.382;5.270;2022-09-12T14:37:52;2.33;;;1.88;;
55655;SDS011;41530;52.382;5.270;2022-09-12T14:40:20;2.22;;;1.80;;
55655;SDS011;41530;52.382;5.270;2022-09-12T14:42:49;1.58;;;1.48;;
55655;SDS011;41530;52.382;5.270;2022-09-12T14:47:47;2.55;;;1.83;;
55655;SDS011;41530;52.382;5.270;2022-09-12T14:50:17;2.33;;;2.00;;
55655;SDS011;41530;52.382;5.270;2022-09-12T14:53:04;1.95;;;1.77;;
55655;SDS011;41530;52.382;5.270;2022-09-12T14:55:56;2.10;;;1.88;;
55655;SDS011;41530;52.382;5.270;2022-09-12T14:58:31;2.63;;;2.15;;
55655;SDS011;41530;52.382;5.270;2022-09-12T15:01:02;6.25;;;1.80;;
55655;SDS011;41530;52.382;5.270;2022-09-12T15:03:50;5.13;;;2.08;;
55655;SDS011;41530;52.382;5.270;2022-09-12T15:06:31;2.33;;;1.85;;
55655;SDS011;41530;52.382;5.270;2022-09-12T15:09:02;2.00;;;1.70;;
55655;SDS011;41530;52.382;5.270;2022-09-12T15:11:32;3.22;;;2.15;;
55655;SDS011;41530;52.382;5.270;2022-09-12T15:14:05;2.28;;;2.08;;
55655;SDS011;41530;52.382;5.270;2022-09-12T15:16:38;1.83;;;1.63;;
55655;SDS011;41530;52.382;5.270;2022-09-12T15:19:05;2.40;;;1.92;;
55655;SDS011;41530;52.382;5.270;2022-09-12T15:21:31;1.88;;;1.60;;
55655;SDS011;41530;52.382;5.270;2022-09-12T15:23:58;2.85;;;1.92;;
55655;SDS011;41530;52.382;5.270;2022-09-12T15:26:26;2.15;;;1.95;;
55655;SDS011;41530;52.382;5.270;2022-09-12T15:28:55;1.80;;;1.70;;
55655;SDS011;41530;52.382;5.270;2022-09-12T15:31:23;2.33;;;1.90;;
55655;SDS011;41530;52.382;5.270;2022-09-12T15:33:52;2.15;;;1.88;;
55655;SDS011;41530;52.382;5.270;2022-09-12T15:36:21;3.33;;;1.83;;
55655;SDS011;41530;52.382;5.270;2022-09-12T15:38:48;2.38;;;1.73;;
55655;SDS011;41530;52.382;5.270;2022-09-12T15:41:17;3.00;;;1.70;;
55655;SDS011;41530;52.382;5.270;2022-09-12T15:43:45;2.13;;;1.80;;
55655;SDS011;41530;52.382;5.270;2022-09-12T15:46:13;3.35;;;1.52;;
55655;SDS011;41530;52.382;5.270;2022-09-12T15:48:42;4.82;;;1.80;;
55655;SDS011;41530;52.382;5.270;2022-09-12T15:51:12;1.75;;;1.65;;
55655;SDS011;41530;52.382;5.270;2022-09-12T15:53:41;4.22;;;1.65;;
55655;SDS011;41530;52.382;5.270;2022-09-12T15:56:08;2.17;;;1.83;;
55655;SDS011;41530;52.382;5.270;2022-09-12T15:58:35;1.42;;;1.33;;
55655;SDS011;41530;52.382;5.270;2022-09-12T16:01:01;2.63;;;1.83;;
55655;SDS011;41530;52.382;5.270;2022-09-12T16:03:28;2.50;;;2.00;;
55655;SDS011;41530;52.382;5.270;2022-09-12T16:05:56;2.72;;;1.70;;
55655;SDS011;41530;52.382;5.270;2022-09-12T16:08:24;2.95;;;1.90;;
55655;SDS011;41530;52.382;5.270;2022-09-12T16:10:53;2.83;;;1.60;;
55655;SDS011;41530;52.382;5.270;2022-09-12T16:13:22;2.47;;;1.80;;
55655;SDS011;41530;52.382;5.270;2022-09-12T16:15:49;1.70;;;1.60;;
55655;SDS011;41530;52.382;5.270;2022-09-12T16:18:16;2.35;;;1.55;;
55655;SDS011;41530;52.382;5.270;2022-09-12T16:20:43;11.43;;;2.00;;
55655;SDS011;41530;52.382;5.270;2022-09-12T16:23:10;3.30;;;1.50;;
55655;SDS011;41530;52.382;5.270;2022-09-12T16:25:40;1.60;;;1.50;;
55655;SDS011;41530;52.382;5.270;2022-09-12T16:28:08;2.58;;;1.90;;
55655;SDS011;41530;52.382;5.270;2022-09-12T16:30:34;4.28;;;1.55;;
55655;SDS011;41530;52.382;5.270;2022-09-12T16:33:01;1.95;;;1.45;;
55655;SDS011;41530;52.382;5.270;2022-09-12T16:35:29;3.33;;;1.90;;
55655;SDS011;41530;52.382;5.270;2022-09-12T16:37:56;3.47;;;1.67;;
55655;SDS011;41530;52.382;5.270;2022-09-12T16:40:23;2.03;;;1.58;;
55655;SDS011;41530;52.382;5.270;2022-09-12T16:42:50;1.52;;;1.42;;
55655;SDS011;41530;52.382;5.270;2022-09-12T16:45:16;3.00;;;1.48;;
55655;SDS011;41530;52.382;5.270;2022-09-12T16:47:43;2.25;;;1.88;;
55655;SDS011;41530;52.382;5.270;2022-09-12T16:50:09;2.70;;;1.90;;
55655;SDS011;41530;52.382;5.270;2022-09-12T16:52:36;2.95;;;1.73;;
55655;SDS011;41530;52.382;5.270;2022-09-12T16:55:03;2.38;;;1.80;;
55655;SDS011;41530;52.382;5.270;2022-09-12T16:57:30;2.30;;;1.83;;
55655;SDS011;41530;52.382;5.270;2022-09-12T16:59:56;1.77;;;1.67;;
55655;SDS011;41530;52.382;5.270;2022-09-12T17:02:23;3.75;;;1.92;;
55655;SDS011;41530;52.382;5.270;2022-09-12T17:04:49;1.70;;;1.60;;
55655;SDS011;41530;52.382;5.270;2022-09-12T17:07:17;2.33;;;1.73;;
55655;SDS011;41530;52.382;5.270;2022-09-12T17:09:44;2.50;;;1.90;;
55655;SDS011;41530;52.382;5.270;2022-09-12T17:12:13;2.40;;;1.70;;
55655;SDS011;41530;52.382;5.270;2022-09-12T17:14:39;2.10;;;1.77;;
55655;SDS011;41530;52.382;5.270;2022-09-12T17:17:06;3.63;;;2.25;;
55655;SDS011;41530;52.382;5.270;2022-09-12T17:19:32;1.88;;;1.65;;
55655;SDS011;41530;52.382;5.270;2022-09-12T17:21:59;2.28;;;1.80;;
55655;SDS011;41530;52.382;5.270;2022-09-12T17:24:26;2.10;;;1.90;;
55655;SDS011;41530;52.382;5.270;2022-09-12T17:26:52;4.43;;;2.00;;
55655;SDS011;41530;52.382;5.270;2022-09-12T17:29:19;3.35;;;2.00;;
55655;SDS011;41530;52.382;5.270;2022-09-12T17:31:46;2.38;;;2.10;;
55655;SDS011;41530;52.382;5.270;2022-09-12T17:34:13;2.03;;;1.90;;
55655;SDS011;41530;52.382;5.270;2022-09-12T17:36:40;2.85;;;2.10;;